deformed-offering

Nearby METAR Reports

 

KSJC - San Jose, California, USA
Distance from station: NE 9mi, 14km
Updated: Mon, 28-Sep-2020 3:53pm PDT
Overcast
Overcast
 Wind from NNW
Wind: NNW 10 mph , 17 km/h
Temperature: 99°F , 37°C
Dew Point: 36°F , 2°C
Humidity: 11%
Barometer: 29.85 inHg , 1010.8 hPa
Clouds: Overcast
Visibility: 10 miles , 16 km
Cloud details: Few Clouds 1300 ft
Mostly Cloudy 4500 ft
Overcast 6000 ft
2020/09/28 22:53 KSJC 282253Z 33009KT 10SM FEW013 BKN045 OVC060 37/02 A2985 RMK AO2 SLP106 FU FEW013 FU BKN045 FU OVC060 T03720017
KRHV - San Jose/Reid, California, USA
Distance from station: ENE 12mi, 19km
Updated: Mon, 28-Sep-2020 4:47pm PDT
Clear
Clear
 Wind from NW
Wind: NW 10 mph , 17 km/h
Temperature: 99°F , 37°C
Dew Point: 41°F , 5°C
Humidity: 14%
Barometer: 29.85 inHg , 1010.8 hPa
Clouds: Clear
Visibility: 10 miles , 16 km
2020/09/28 23:47 KRHV 282347Z 31009KT 10SM SKC 37/05 A2985
 
KPAO - Palo Alto, California, USA
Distance from station: NNW 14mi, 23km
Updated: Mon, 28-Sep-2020 3:47pm PDT
Smoke, Clear
Smoke, Clear
 Wind from NNW
Wind: NNW 10 mph , 17 km/h
Temperature: 95°F , 35°C
Dew Point: 54°F , 12°C
Humidity: 25%
Barometer: 29.86 inHg , 1011.2 hPa
Summary: Smoke
Clouds: Clear
Visibility: 10 miles , 16 km
2020/09/28 22:47 KPAO 282247Z 34009KT 10SM FU SKC 35/12 A2986
KSQL - San Carlos Airpo, California, USA
Distance from station: NW 21mi, 34km
Updated: Mon, 28-Sep-2020 3:53pm PDT
Clear
Clear
 Wind from WNW
Wind: WNW 5 mph , 7 km/h
Temperature: 95°F , 35°C
Dew Point: 32°F , 0°C
Humidity: 11%
Barometer: 29.87 inHg , 1011.5 hPa
Clouds: Clear
Visibility: 10 miles , 16 km
2020/09/28 22:53 KSQL 282253Z 29004KT 10SM SKC 35/00 A2987
 
KWVI - Watsonville, California, USA
Distance from station: SSE 27mi, 44km
Updated: Mon, 28-Sep-2020 3:53pm PDT
Clear
Clear
 Wind from WSW
Wind: WSW 8 mph , 13 km/h
Temperature: 66°F , 19°C
Dew Point: 57°F , 14°C
Humidity: 73%
Barometer: 29.92 inHg , 1013.2 hPa
Clouds: Clear
Visibility: 10 miles , 16 km
2020/09/28 22:53 KWVI 282253Z AUTO 25007KT 10SM CLR 19/14 A2992 RMK AO2 SLP131 T01940144
KHWD - Hayward, California, USA
Distance from station: N 28mi, 44km
Updated: Mon, 28-Sep-2020 3:54pm PDT
Clear
Clear
 Wind from WNW
Wind: WNW 9 mph , 15 km/h
Temperature: 93°F , 34°C
Dew Point: 45°F , 7°C
Humidity: 19%
Barometer: 29.86 inHg , 1011.2 hPa
Clouds: Clear
Visibility: 10 miles , 16 km
2020/09/28 22:54 KHWD 282254Z 29008KT 10SM CLR 34/07 A2986 RMK AO2 SLP118 T03440067
 
KSFO - San Francisco, California, USA
Distance from station: NW 30mi, 49km
Updated: Mon, 28-Sep-2020 3:56pm PDT
Few Clouds
Few Clouds
 Wind from WNW
Wind: WNW 15 mph , 24 km/h
Temperature: 84°F , 29°C
Dew Point: 55°F , 13°C
Humidity: 37%
Barometer: 29.86 inHg , 1011.2 hPa
Clouds: Few Clouds
Visibility: 10 miles , 16 km
Cloud details: Few Clouds 1000 ft
Few Clouds 20000 ft
2020/09/28 22:56 KSFO 282256Z 30013KT 10SM FEW010 FEW200 29/13 A2986 RMK AO2 SLP112 T02890128
KHAF - Half Moon Bay, California, USA
Distance from station: WNW 31mi, 50km
Updated: Mon, 28-Sep-2020 4:35pm PDT
Fog, Overcast
Fog, Overcast
 Wind from SSE
Wind: SSE 6 mph , 9 km/h
Temperature: 59°F , 15°C
Dew Point: 57°F , 14°C
Humidity: 94%
Barometer: 29.93 inHg , 1013.5 hPa
Summary: Fog
Clouds: Overcast
Visibility: 1/4 mile , 0.4 km
Cloud details: Overcast 300 ft
2020/09/28 23:35 KHAF 282335Z AUTO 16005KT 1/4SM FG OVC003 15/14 A2993 RMK AO2
 
KLVK - Livermore, California, USA
Distance from station: NNE 31mi, 51km
Updated: Mon, 28-Sep-2020 3:53pm PDT
Clear
Clear
 Wind from ENE
Wind: ENE 9 mph , 15 km/h
Temperature: 97°F , 36°C
Dew Point: 28°F , -2°C
Humidity: 9%
Barometer: 29.88 inHg , 1011.9 hPa
Clouds: Clear
Visibility: 10 miles , 16 km
2020/09/28 22:53 KLVK 282253Z 06008KT 10SM CLR 36/M02 A2988 RMK AO2 SLP111 T03611017
KOAK - Oakland, California, USA
Distance from station: NNW 33mi, 53km
Updated: Mon, 28-Sep-2020 3:53pm PDT
Few Clouds
Few Clouds
 Wind from WNW
Wind: WNW 14 mph , 22 km/h
Temperature: 88°F , 31°C
Dew Point: 57°F , 14°C
Humidity: 35%
Barometer: 29.86 inHg , 1011.2 hPa
Clouds: Few Clouds
Visibility: 10 miles , 16 km
Cloud details: Few Clouds 20000 ft
2020/09/28 22:53 KOAK 282253Z 30012KT 10SM FEW200 31/14 A2986 RMK AO2 SLP112 T03110139
 
KCVH - Hollister Muni, California, USA
Distance from station: SE 42mi, 68km
Updated: Fri, 25-Sep-2020 11:35am PDT
NOT Current
Clear
Clear
 Wind from calm
Wind: Calm
Temperature: 72°F , 22°C
Dew Point: 50°F , 10°C
Humidity: 47%
Barometer: 30.06 inHg , 1017.9 hPa
Clouds: Clear
Visibility: 9 miles , 14 km
2020/09/25 18:35 KCVH 251835Z AUTO 00000KT 9SM CLR 22/10 A3006 RMK A01
KSNS - Salinas, California, USA
Distance from station: SSE 48mi, 77km
Updated: Mon, 28-Sep-2020 3:53pm PDT
Clear
Clear
 Wind from NW
Wind: NW 13 mph , 20 km/h
Temperature: 68°F , 20°C
Dew Point: 57°F , 14°C
Humidity: 69%
Barometer: 29.90 inHg , 1012.5 hPa
Clouds: Clear
Visibility: 10 miles , 16 km
2020/09/28 22:53 KSNS 282253Z 32011KT 10SM CLR 20/14 A2990 RMK AO2 SLP135 T02000139
 
KMRY - Monterey, California, USA
Distance from station: SSE 49mi, 78km
Updated: Mon, 28-Sep-2020 3:54pm PDT
Haze, Clear
Haze, Clear
 Wind from varies
Wind: varies 6 mph , 9 km/h
Barometer: 29.91 inHg , 1012.9 hPa
Summary: Haze
Clouds: Clear
Visibility: 10 miles , 16 km
2020/09/28 22:54 KMRY 282254Z VRB05KT 10SM HZ CLR A2991 RMK AO2 SLPNO $
KCCR - Concord, California, USA
Distance from station: N 50mi, 81km
Updated: Mon, 28-Sep-2020 3:53pm PDT
Partly Cloudy
Partly Cloudy
 Wind from varies
Wind: varies 7 mph , 11 km/h, Gust: 17 mph , 28 km/h
Temperature: 99°F , 37°C
Dew Point: 34°F , 1°C
Humidity: 10%
Barometer: 29.86 inHg , 1011.2 hPa
Clouds: Partly Cloudy
Visibility: 10 miles , 16 km
Cloud details: Partly Cloudy 11000 ft
2020/09/28 22:53 KCCR 282253Z VRB06G15KT 10SM SCT110 37/01 A2986 RMK AO2 SLP099 T03720011
deformed-offering